الصفحة الرئيسية
METAR-TAF:

METAR-TAF

مطار :

Iranshahr, إيران

دائرة عرض: 27-12N, خط طول: 060-42E, ارتفاع: 591 متر

مراقبة الطقس الحالي

تاريخ ووقت الإصدار 2ساعات و 46 دقيقة قبل الساعة 21:00UTC
رياح هادئة
درجة الحرارة 32°درجة مئوية
الرطوبة 9%
ضغط 1004 hPa
الرؤية 10 كم أو أكثر
الغيوم لا تقل 1500 م ولا وجود لمزنة ركامية السحاب الأسود

METAR: OIZI 032100Z 00000KT CAVOK 32/M05 Q1004

زمن: 04:16 (23:46 UTC)


TAF: مفقودة

أرصاد الطقس والتوقعات من أكثر من 4000 مطار (تقارير الطقس للمطار METAR والتنبؤ بالطقس بالمطارTAF).

المحطات المتاحة هي النقط الصفراء والحمراء على الخريطة.

حرك المؤشر فوق النقطة لمعرفة اسم المحطة.

ثم انقر لمعرفة أرصاد وتوقعات الطقس.

لتغيير الخارطة: اضغط على الأزرار الخضراء مع رمز الصليب الأسود للتكبير. على الزر الأخضر مع شرطة للتصغير، أو على الأسهم الخضراء للخرائط المجاورة.


METAR-TAF: